Time;durP1;ratioP1;P1;durP2;ratioP2;P2;SDS_P1;SDS_P2;PMS_P1;PMS_P2;Temp;Humidity;BMP_temperature;BMP_pressure;BME280_temperature;BME280_humidity;BME280_pressure;Samples;Min_cycle;Max_cycle;Signal;HPM_P1;HPM_P2
2022/11/24 00:01:54;;;;;;;14.83;3.17;;;7.30;99.90;;;;;;5073421;28;20648;-77
2022/11/24 00:04:19;;;;;;;11.83;2.77;;;7.30;99.90;;;;;;5072213;28;20639;-77
2022/11/24 00:06:45;;;;;;;14.23;3.77;;;7.20;99.90;;;;;;5073547;28;20277;-77
2022/11/24 00:09:11;;;;;;;13.20;3.20;;;7.20;99.90;;;;;;5073809;28;20201;-77
2022/11/24 00:11:36;;;;;;;10.80;2.90;;;7.10;99.90;;;;;;5073980;28;20171;-77
2022/11/24 00:14:03;;;;;;;15.43;3.17;;;7.10;99.90;;;;;;5072266;28;20208;-77
2022/11/24 00:16:34;;;;;;;10.90;3.23;;;7.10;99.90;;;;;;5073377;28;20224;-78
2022/11/24 00:19:02;;;;;;;10.60;2.67;;;7.10;99.90;;;;;;5073729;28;20178;-77
2022/11/24 00:21:29;;;;;;;17.17;3.00;;;7.10;99.90;;;;;;5076103;28;20192;-77
2022/11/24 00:23:55;;;;;;;11.67;3.27;;;7.10;99.90;;;;;;5101958;22;20312;-79
2022/11/24 00:26:29;;;;;;;15.20;3.17;;;7.10;99.90;;;;;;5093883;28;20257;-80
2022/11/24 00:28:57;;;;;;;17.00;2.93;;;7.00;99.90;;;;;;5078600;28;20666;-81
2022/11/24 00:31:29;;;;;;;14.97;3.73;;;7.00;99.90;;;;;;5094644;28;20233;-80
2022/11/24 00:33:58;;;;;;;11.47;2.67;;;7.00;99.90;;;;;;5078407;28;20220;-80
2022/11/24 00:36:25;;;;;;;20.17;2.90;;;7.00;99.90;;;;;;5076927;28;20170;-81
2022/11/24 00:38:56;;;;;;;10.87;2.80;;;7.00;99.90;;;;;;5077272;28;20214;-80
2022/11/24 00:41:22;;;;;;;10.73;3.00;;;7.00;99.90;;;;;;5077259;28;20216;-81
2022/11/24 00:43:48;;;;;;;12.10;2.87;;;6.90;99.90;;;;;;5077700;28;20741;-80
2022/11/24 00:46:15;;;;;;;14.47;2.93;;;6.90;99.90;;;;;;5077855;28;20723;-80
2022/11/24 00:48:41;;;;;;;12.67;3.90;;;6.90;99.90;;;;;;5076459;28;20262;-80
2022/11/24 00:51:09;;;;;;;15.43;3.10;;;6.90;99.90;;;;;;5093512;28;20190;-80
2022/11/24 00:53:35;;;;;;;13.63;2.83;;;6.90;99.90;;;;;;5078371;28;20187;-80
2022/11/24 00:56:02;;;;;;;16.63;3.23;;;6.90;99.90;;;;;;5076243;28;20541;-80
2022/11/24 00:58:29;;;;;;;11.43;2.60;;;6.90;99.90;;;;;;5076765;28;20193;-80
2022/11/24 01:01:00;;;;;;;12.30;2.60;;;6.90;99.90;;;;;;5081024;28;20636;-81
2022/11/24 01:03:25;;;;;;;7.23;2.47;;;6.90;99.90;;;;;;5079339;28;20197;-81
2022/11/24 01:05:51;;;;;;;13.77;2.53;;;6.90;99.90;;;;;;5077147;28;20699;-80
2022/11/24 01:08:16;;;;;;;11.83;2.90;;;6.80;99.90;;;;;;5077317;28;20181;-80
2022/11/24 01:10:42;;;;;;;8.47;3.03;;;6.80;99.90;;;;;;5078614;28;20233;-81
2022/11/24 01:13:07;;;;;;;14.23;2.63;;;6.90;99.90;;;;;;5079507;28;20187;-80
2022/11/24 01:15:34;;;;;;;11.60;2.33;;;6.80;99.90;;;;;;5094564;28;20594;-80
2022/11/24 01:18:00;;;;;;;8.27;2.20;;;6.80;99.90;;;;;;5079101;28;20167;-81
2022/11/24 01:20:25;;;;;;;10.23;2.90;;;6.80;99.90;;;;;;5079846;28;20175;-80
2022/11/24 01:22:51;;;;;;;11.20;2.97;;;6.80;99.90;;;;;;5079300;28;20198;-80
2022/11/24 01:25:16;;;;;;;11.03;2.60;;;6.80;99.90;;;;;;5094674;28;20598;-80
2022/11/24 01:27:42;;;;;;;11.53;2.50;;;6.80;99.90;;;;;;5094444;28;20167;-80
2022/11/24 01:30:08;;;;;;;8.67;2.43;;;6.80;99.90;;;;;;5079369;28;20710;-80
2022/11/24 01:32:35;;;;;;;12.07;2.97;;;6.80;99.90;;;;;;5077595;28;20673;-80
2022/11/24 01:35:01;;;;;;;12.43;2.83;;;6.80;99.90;;;;;;5079458;28;20171;-80
2022/11/24 01:37:26;;;;;;;7.90;2.53;;;6.90;99.90;;;;;;5080001;28;20257;-80
2022/11/24 01:39:52;;;;;;;20.23;3.27;;;6.80;99.90;;;;;;5078657;28;20205;-80
2022/11/24 01:42:17;;;;;;;16.70;2.60;;;6.90;99.90;;;;;;5079286;28;20235;-80
2022/11/24 01:44:43;;;;;;;14.47;3.60;;;6.90;99.90;;;;;;5078907;28;20201;-80
2022/11/24 01:47:32;;;;;;;7.30;2.33;;;6.90;99.90;;;;;;5080122;28;20182;-80
2022/11/24 01:50:00;;;;;;;12.03;2.63;;;6.90;99.90;;;;;;5079897;28;20168;-80
2022/11/24 01:52:39;;;;;;;15.97;3.47;;;7.00;99.90;;;;;;5079544;28;20280;-80
2022/11/24 01:55:10;;;;;;;19.33;3.37;;;7.00;99.90;;;;;;5079974;28;20170;-80
2022/11/24 01:57:41;;;;;;;9.13;2.80;;;7.00;99.90;;;;;;5082541;28;20166;-80
2022/11/24 02:00:10;;;;;;;19.87;3.00;;;7.10;99.90;;;;;;5080948;28;20179;-81
2022/11/24 02:02:35;;;;;;;13.50;3.03;;;7.10;99.90;;;;;;5085347;28;20222;-80
2022/11/24 02:05:24;;;;;;;11.90;2.73;;;7.10;99.90;;;;;;5090037;28;20199;-81
2022/11/24 02:07:52;;;;;;;12.27;3.00;;;7.10;99.90;;;;;;5089406;28;20167;-81
2022/11/24 02:10:18;;;;;;;18.70;4.60;;;7.20;99.90;;;;;;5085450;28;20202;-80
2022/11/24 02:12:47;;;;;;;15.47;2.70;;;7.10;99.90;;;;;;5076123;28;20573;-80
2022/11/24 02:15:14;;;;;;;17.33;3.60;;;7.20;99.90;;;;;;5077877;28;20655;-81
2022/11/24 02:17:40;;;;;;;14.73;3.07;;;7.20;99.90;;;;;;5075906;28;20649;-81
2022/11/24 02:20:09;;;;;;;13.40;2.43;;;7.20;99.90;;;;;;5076695;28;20177;-80
2022/11/24 02:22:43;;;;;;;12.10;3.03;;;7.20;99.90;;;;;;5076429;28;20688;-81
2022/11/24 02:25:15;;;;;;;8.07;2.33;;;7.20;99.90;;;;;;5075554;28;20205;-80
2022/11/24 02:27:43;;;;;;;12.70;3.07;;;7.20;99.90;;;;;;5075334;28;20190;-81
2022/11/24 02:30:09;;;;;;;9.27;2.10;;;7.20;99.90;;;;;;5076673;28;20175;-81
2022/11/24 02:32:39;;;;;;;18.67;4.27;;;7.20;99.90;;;;;;5075150;28;20560;-81
2022/11/24 02:35:06;;;;;;;11.83;2.80;;;7.20;99.90;;;;;;5074608;28;20179;-81
2022/11/24 02:37:32;;;;;;;13.40;3.50;;;7.20;99.90;;;;;;5074296;28;20198;-81
2022/11/24 02:39:57;;;;;;;11.27;3.47;;;7.20;99.90;;;;;;5075753;28;20179;-81
2022/11/24 02:42:25;;;;;;;10.47;2.60;;;7.20;99.90;;;;;;5074525;28;20584;-81
2022/11/24 02:44:55;;;;;;;10.93;2.67;;;7.20;99.90;;;;;;5075601;28;20180;-81
2022/11/24 02:47:21;;;;;;;18.57;3.30;;;7.20;99.90;;;;;;5075428;28;20156;-81
2022/11/24 02:49:46;;;;;;;10.33;2.47;;;7.20;99.90;;;;;;5074182;28;20185;-81
2022/11/24 02:52:13;;;;;;;10.47;2.40;;;7.30;99.90;;;;;;5075648;28;20167;-81
2022/11/24 02:54:38;;;;;;;18.33;3.50;;;7.30;99.90;;;;;;5075516;28;20175;-80
2022/11/24 02:57:04;;;;;;;8.83;2.87;;;7.30;99.90;;;;;;5073804;28;20232;-81
2022/11/24 02:59:30;;;;;;;12.83;3.07;;;7.30;99.90;;;;;;5075392;28;20175;-81
2022/11/24 03:01:55;;;;;;;18.70;3.47;;;7.30;99.90;;;;;;5090838;28;20598;-79
2022/11/24 03:04:21;;;;;;;8.57;2.63;;;7.40;99.90;;;;;;5074152;28;20544;-81
2022/11/24 03:06:47;;;;;;;14.47;3.03;;;7.40;99.90;;;;;;5074256;28;20198;-81
2022/11/24 03:09:12;;;;;;;14.20;2.90;;;7.40;99.90;;;;;;5076694;28;20217;-81
2022/11/24 03:11:38;;;;;;;20.03;3.33;;;7.50;99.90;;;;;;5077480;28;20187;-80
2022/11/24 03:14:04;;;;;;;19.87;3.37;;;7.50;99.90;;;;;;5076382;28;20195;-80
2022/11/24 03:16:30;;;;;;;16.33;2.77;;;7.50;99.90;;;;;;5076253;28;20688;-80
2022/11/24 03:18:56;;;;;;;11.17;3.03;;;7.40;99.90;;;;;;5074957;28;20228;-79
2022/11/24 03:21:21;;;;;;;13.23;2.50;;;7.40;99.90;;;;;;5076488;28;20220;-81
2022/11/24 03:23:47;;;;;;;13.67;2.50;;;7.40;99.90;;;;;;5091940;28;20802;-80
2022/11/24 03:26:16;;;;;;;11.60;3.00;;;7.40;99.90;;;;;;5075447;28;20202;-81
2022/11/24 03:28:43;;;;;;;11.40;2.83;;;7.40;99.90;;;;;;5077767;28;20660;-80
2022/11/24 03:31:09;;;;;;;11.30;2.90;;;7.40;99.90;;;;;;5077687;28;20481;-80
2022/11/24 03:33:35;;;;;;;20.17;3.23;;;7.40;99.90;;;;;;5077221;28;20213;-80
2022/11/24 03:36:01;;;;;;;12.53;2.77;;;7.40;99.90;;;;;;5077371;28;20648;-81
2022/11/24 03:38:27;;;;;;;10.47;2.43;;;7.40;99.90;;;;;;5078422;28;20186;-81
2022/11/24 03:40:53;;;;;;;7.93;2.23;;;7.40;99.90;;;;;;5076431;28;20183;-79
2022/11/24 03:43:18;;;;;;;13.27;2.57;;;7.30;99.90;;;;;;5077185;28;20683;-80
2022/11/24 03:45:45;;;;;;;14.77;3.20;;;7.40;99.90;;;;;;5077903;28;20230;-80
2022/11/24 03:48:11;;;;;;;13.03;2.63;;;7.40;99.90;;;;;;5076557;28;20174;-80
2022/11/24 03:50:36;;;;;;;14.00;3.07;;;7.40;99.90;;;;;;5078289;28;20171;-80
2022/11/24 03:53:02;;;;;;;16.73;3.13;;;7.40;99.90;;;;;;5078734;28;20198;-81
2022/11/24 03:55:27;;;;;;;16.33;2.87;;;7.40;99.90;;;;;;5093759;28;20656;-80
2022/11/24 03:57:53;;;;;;;17.27;3.63;;;7.40;99.90;;;;;;5079345;28;20173;-80
2022/11/24 04:00:19;;;;;;;11.57;3.07;;;7.40;99.90;;;;;;5078437;28;20177;-80
2022/11/24 04:02:44;;;;;;;13.77;2.63;;;7.50;99.90;;;;;;5080460;28;20195;-80
2022/11/24 04:05:10;;;;;;;17.33;3.50;;;7.50;99.90;;;;;;5087751;28;20194;-80
2022/11/24 04:07:35;;;;;;;11.13;2.60;;;7.50;99.90;;;;;;5078620;28;20175;-80
2022/11/24 04:10:01;;;;;;;20.60;3.63;;;7.50;99.90;;;;;;5077899;28;20263;-80
2022/11/24 04:12:44;;;;;;;18.33;3.03;;;7.50;99.90;;;;;;5093880;28;20198;-80
2022/11/24 04:15:16;;;;;;;13.17;3.70;;;7.50;99.90;;;;;;5094013;28;20219;-80
2022/11/24 04:17:43;;;;;;;19.03;2.93;;;7.50;99.90;;;;;;5077796;28;20236;-80
2022/11/24 04:20:09;;;;;;;14.07;2.50;;;7.60;99.90;;;;;;5081340;28;20177;-80
2022/11/24 04:22:35;;;;;;;10.63;2.67;;;7.60;99.90;;;;;;5079916;28;20655;-80
2022/11/24 04:25:01;;;;;;;12.40;2.70;;;7.60;99.90;;;;;;5080626;28;20177;-80
2022/11/24 04:27:27;;;;;;;19.33;2.37;;;7.60;99.90;;;;;;5088558;28;20210;-80
2022/11/24 04:29:52;;;;;;;13.53;2.60;;;7.60;99.90;;;;;;5091378;28;20178;-81
2022/11/24 04:32:18;;;;;;;15.33;3.57;;;7.60;99.90;;;;;;5093680;28;20191;-81
2022/11/24 04:34:43;;;;;;;15.70;3.33;;;7.70;99.90;;;;;;5078747;28;20181;-80
2022/11/24 04:37:09;;;;;;;18.27;2.90;;;7.60;99.90;;;;;;5082305;28;20202;-80
2022/11/24 04:39:35;;;;;;;14.13;2.87;;;7.70;99.90;;;;;;5107370;28;20174;-80
2022/11/24 04:42:00;;;;;;;15.20;3.43;;;7.70;99.90;;;;;;5091813;28;20193;-80
2022/11/24 04:44:26;;;;;;;13.00;2.70;;;7.70;99.90;;;;;;5091075;28;20242;-80
2022/11/24 04:46:51;;;;;;;19.73;3.43;;;7.70;99.90;;;;;;5105838;28;20208;-81
2022/11/24 04:49:17;;;;;;;13.97;2.93;;;7.70;99.90;;;;;;5091001;28;20178;-80
2022/11/24 04:51:43;;;;;;;20.40;3.37;;;7.80;99.90;;;;;;5091388;28;20179;-80
2022/11/24 04:54:10;;;;;;;11.83;2.27;;;7.60;99.90;;;;;;5084939;28;20195;-80
2022/11/24 04:56:36;;;;;;;17.03;3.17;;;7.80;99.90;;;;;;5079169;28;20270;-81
2022/11/24 04:59:02;;;;;;;22.67;4.20;;;7.80;99.90;;;;;;5080163;28;20264;-81
2022/11/24 05:01:28;;;;;;;19.93;3.40;;;7.80;99.90;;;;;;5095391;28;20224;-82
2022/11/24 05:03:54;;;;;;;19.57;3.90;;;7.90;99.90;;;;;;5080082;28;20195;-81
2022/11/24 05:06:20;;;;;;;17.53;2.93;;;7.90;99.90;;;;;;5080651;28;20293;-82
2022/11/24 05:08:47;;;;;;;17.80;3.73;;;7.90;99.90;;;;;;5083710;28;20178;-82
2022/11/24 05:11:13;;;;;;;23.13;3.40;;;7.90;99.90;;;;;;5082529;28;20521;-82
2022/11/24 05:13:39;;;;;;;25.43;2.93;;;7.90;99.90;;;;;;5083603;28;20190;-80
2022/11/24 05:16:04;;;;;;;31.07;3.60;;;7.90;99.90;;;;;;5083319;28;20179;-81
2022/11/24 05:18:30;;;;;;;16.10;3.00;;;7.90;99.90;;;;;;5095911;28;20203;-82
2022/11/24 05:20:56;;;;;;;16.67;2.97;;;8.00;99.90;;;;;;5095532;28;20175;-82
2022/11/24 05:23:22;;;;;;;16.83;2.90;;;7.90;99.90;;;;;;5092216;28;20582;-82
2022/11/24 05:25:48;;;;;;;22.57;3.60;;;7.90;99.90;;;;;;5082586;28;20207;-82
2022/11/24 05:28:14;;;;;;;16.23;2.87;;;7.90;99.90;;;;;;5082245;28;20240;-82
2022/11/24 05:30:40;;;;;;;18.77;3.03;;;7.90;99.90;;;;;;5081067;28;20171;-81
2022/11/24 05:33:07;;;;;;;23.10;2.67;;;7.90;99.90;;;;;;5081602;28;20282;-82
2022/11/24 05:35:35;;;;;;;15.50;2.83;;;7.90;99.90;;;;;;5082258;28;20175;-81
2022/11/24 05:38:01;;;;;;;18.13;3.30;;;7.90;99.90;;;;;;5082694;28;20175;-82
2022/11/24 05:40:27;;;;;;;23.17;3.73;;;7.90;99.90;;;;;;5082274;28;20178;-82
2022/11/24 05:42:52;;;;;;;11.23;2.97;;;7.90;99.90;;;;;;5082353;28;20202;-82
2022/11/24 05:45:20;;;;;;;22.97;3.47;;;8.00;99.90;;;;;;5097927;28;20207;-82
2022/11/24 05:47:47;;;;;;;16.10;3.30;;;8.00;99.90;;;;;;5080974;28;20197;-82
2022/11/24 05:50:15;;;;;;;13.63;3.33;;;8.00;99.90;;;;;;5080489;28;20171;-82
2022/11/24 05:52:42;;;;;;;25.83;3.60;;;8.00;99.90;;;;;;5080180;28;20227;-81
2022/11/24 05:55:08;;;;;;;18.83;2.40;;;8.00;99.90;;;;;;5081777;28;20237;-80
2022/11/24 05:57:34;;;;;;;21.50;3.23;;;8.00;99.90;;;;;;5083456;28;20209;-81
2022/11/24 06:00:00;;;;;;;29.60;3.53;;;8.00;99.90;;;;;;5082623;28;20175;-80
2022/11/24 06:02:26;;;;;;;25.10;3.90;;;8.10;99.90;;;;;;5081941;28;20697;-81
2022/11/24 06:04:51;;;;;;;16.33;3.20;;;8.00;99.90;;;;;;5085663;28;20225;-82
2022/11/24 06:07:17;;;;;;;15.47;3.03;;;8.00;99.90;;;;;;5085725;28;20205;-82
2022/11/24 06:09:43;;;;;;;19.20;3.20;;;8.00;99.90;;;;;;5081135;28;20540;-82
2022/11/24 06:12:10;;;;;;;10.77;3.10;;;8.10;99.90;;;;;;5080967;28;20174;-82
2022/11/24 06:14:36;;;;;;;17.30;3.13;;;8.10;99.90;;;;;;5080561;28;20171;-82
2022/11/24 06:17:02;;;;;;;21.47;4.27;;;8.00;99.90;;;;;;5079440;28;20225;-82
2022/11/24 06:19:28;;;;;;;15.27;3.33;;;8.00;99.90;;;;;;5080619;28;20247;-82
2022/11/24 06:21:53;;;;;;;20.00;3.87;;;8.00;99.90;;;;;;5096722;28;20281;-83
2022/11/24 06:24:19;;;;;;;23.73;3.77;;;8.10;99.90;;;;;;5098276;22;20219;-79
2022/11/24 06:26:44;;;;;;;17.07;3.43;;;8.10;99.90;;;;;;5071003;28;20286;-79
2022/11/24 06:29:10;;;;;;;14.40;2.80;;;8.10;99.90;;;;;;5070848;28;20171;-79
2022/11/24 06:31:36;;;;;;;19.40;3.40;;;8.10;99.90;;;;;;5055654;28;20172;-77
2022/11/24 06:34:05;;;;;;;17.97;3.77;;;8.10;99.90;;;;;;5071132;28;20200;-79
2022/11/24 06:36:31;;;;;;;23.10;3.33;;;8.10;99.90;;;;;;5055248;28;20178;-79
2022/11/24 06:38:56;;;;;;;18.70;3.43;;;8.10;99.90;;;;;;5055393;28;20262;-79
2022/11/24 06:41:22;;;;;;;15.37;2.37;;;8.10;99.90;;;;;;5055930;28;20176;-76
2022/11/24 06:43:47;;;;;;;10.50;2.67;;;8.00;99.90;;;;;;5053997;28;20234;-78
2022/11/24 06:46:14;;;;;;;13.80;2.63;;;8.10;99.90;;;;;;5054171;28;20202;-80
2022/11/24 06:48:39;;;;;;;11.87;2.57;;;8.10;99.90;;;;;;5055747;28;20167;-77
2022/11/24 06:51:07;;;;;;;18.23;2.50;;;8.00;99.90;;;;;;5055636;28;20168;-79
2022/11/24 06:53:38;;;;;;;17.57;3.20;;;8.00;99.90;;;;;;5055089;28;20190;-79
2022/11/24 06:56:09;;;;;;;13.30;2.37;;;8.00;99.90;;;;;;5055063;28;20239;-78
2022/11/24 06:58:38;;;;;;;16.53;2.53;;;8.00;99.90;;;;;;5054265;28;20166;-78
2022/11/24 07:01:04;;;;;;;14.53;2.07;;;8.00;99.90;;;;;;5052998;28;20552;-78
2022/11/24 07:03:30;;;;;;;6.33;1.97;;;8.00;99.90;;;;;;5053465;28;20297;-78
2022/11/24 07:05:57;;;;;;;13.77;2.87;;;8.00;99.90;;;;;;5053476;28;20731;-78
2022/11/24 07:08:23;;;;;;;13.10;2.37;;;8.00;99.90;;;;;;5053493;28;20241;-77
2022/11/24 07:10:48;;;;;;;8.40;2.03;;;8.00;99.90;;;;;;5053591;28;20175;-78
2022/11/24 07:13:14;;;;;;;8.40;2.10;;;8.00;99.90;;;;;;5054593;28;20195;-77
2022/11/24 07:15:39;;;;;;;10.57;2.43;;;8.00;99.90;;;;;;5053426;28;20632;-78
2022/11/24 07:18:05;;;;;;;9.73;2.30;;;8.00;99.90;;;;;;5052873;28;20187;-78
2022/11/24 07:20:31;;;;;;;8.47;1.73;;;8.00;99.90;;;;;;5053452;28;20745;-77
2022/11/24 07:22:56;;;;;;;9.73;2.00;;;8.00;99.90;;;;;;5052976;28;20265;-77
2022/11/24 07:25:23;;;;;;;9.60;1.90;;;8.00;99.90;;;;;;5053052;28;20222;-78
2022/11/24 07:27:49;;;;;;;8.70;1.87;;;8.10;99.90;;;;;;5053053;28;20171;-78
2022/11/24 07:30:14;;;;;;;7.33;1.20;;;8.10;99.90;;;;;;5052254;28;20168;-78
2022/11/24 07:32:40;;;;;;;4.93;1.43;;;8.10;99.90;;;;;;5052170;28;20696;-78
2022/11/24 07:35:06;;;;;;;7.53;1.43;;;8.20;99.90;;;;;;5053155;28;20172;-79
2022/11/24 07:37:31;;;;;;;6.97;1.13;;;8.20;99.90;;;;;;5053162;28;20182;-78
2022/11/24 07:39:57;;;;;;;2.77;1.17;;;8.20;99.90;;;;;;5053707;28;20521;-78
2022/11/24 07:42:23;;;;;;;5.93;1.30;;;8.20;99.90;;;;;;5053092;28;20201;-78
2022/11/24 07:44:48;;;;;;;5.80;1.27;;;8.20;99.90;;;;;;5053138;28;20675;-78
2022/11/24 07:47:14;;;;;;;3.60;1.03;;;8.20;99.90;;;;;;5053017;28;20199;-79
2022/11/24 07:49:39;;;;;;;5.90;1.17;;;8.20;99.90;;;;;;5053607;28;20175;-78
2022/11/24 07:52:06;;;;;;;4.80;1.20;;;8.10;99.90;;;;;;5052430;28;20671;-78
2022/11/24 07:54:32;;;;;;;4.00;1.03;;;8.40;99.90;;;;;;5052725;28;20195;-78
2022/11/24 07:56:58;;;;;;;6.43;1.00;;;8.40;99.90;;;;;;5052547;28;20588;-78
2022/11/24 07:59:23;;;;;;;4.50;1.20;;;8.40;99.90;;;;;;5052558;28;20199;-78
2022/11/24 08:01:49;;;;;;;7.17;1.00;;;8.40;99.90;;;;;;5052498;28;20176;-78
2022/11/24 08:04:14;;;;;;;3.00;0.90;;;8.30;99.90;;;;;;5052617;28;20242;-79
2022/11/24 08:06:40;;;;;;;4.80;1.53;;;8.40;99.90;;;;;;5052136;28;20226;-78
2022/11/24 08:09:05;;;;;;;4.63;0.93;;;8.30;99.90;;;;;;5052492;28;20654;-78
2022/11/24 08:11:31;;;;;;;2.70;1.87;;;8.40;99.90;;;;;;5052396;28;20538;-78
2022/11/24 08:13:57;;;;;;;5.80;1.07;;;8.40;99.90;;;;;;5052298;28;20198;-78
2022/11/24 08:16:23;;;;;;;4.57;0.73;;;8.40;99.90;;;;;;5052271;28;20183;-78
2022/11/24 08:18:51;;;;;;;6.67;1.10;;;8.40;99.90;;;;;;5052369;28;20572;-78
2022/11/24 08:21:16;;;;;;;2.47;0.70;;;8.40;99.90;;;;;;5052399;28;20189;-78
2022/11/24 08:23:42;;;;;;;2.53;1.20;;;8.40;99.90;;;;;;5051961;28;20219;-79
2022/11/24 08:26:12;;;;;;;3.47;0.97;;;8.50;99.90;;;;;;5053815;28;20264;-78
2022/11/24 08:28:38;;;;;;;4.00;1.20;;;8.50;99.90;;;;;;5053081;28;20185;-78
2022/11/24 08:31:10;;;;;;;5.13;1.30;;;8.50;99.90;;;;;;5052303;28;20262;-78
2022/11/24 08:33:35;;;;;;;3.53;0.93;;;8.60;99.90;;;;;;5052613;28;20677;-78
2022/11/24 08:36:06;;;;;;;5.73;1.33;;;8.60;99.90;;;;;;5051891;28;20262;-79
2022/11/24 08:38:32;;;;;;;2.87;1.20;;;8.60;99.90;;;;;;5052265;28;20329;-77
2022/11/24 08:41:05;;;;;;;3.67;1.00;;;8.60;99.90;;;;;;5055830;28;20221;-78
2022/11/24 08:43:31;;;;;;;3.27;1.33;;;8.60;99.90;;;;;;5055956;28;20198;-77
2022/11/24 08:46:05;;;;;;;7.50;1.17;;;8.70;99.90;;;;;;5055869;28;20206;-78
2022/11/24 08:48:31;;;;;;;4.70;1.27;;;8.60;99.90;;;;;;5056382;28;20164;-78
2022/11/24 08:50:58;;;;;;;4.67;1.47;;;8.70;99.90;;;;;;5056279;28;20182;-78
2022/11/24 08:53:24;;;;;;;4.37;1.10;;;8.70;99.90;;;;;;5056497;28;20231;-78
2022/11/24 08:55:50;;;;;;;4.90;1.27;;;8.80;99.90;;;;;;5056286;28;20182;-78
2022/11/24 08:58:16;;;;;;;6.57;1.60;;;8.80;99.90;;;;;;5056275;28;20266;-77
2022/11/24 09:00:42;;;;;;;5.23;1.30;;;8.80;99.90;;;;;;5064023;28;20562;-77
2022/11/24 09:03:11;;;;;;;5.63;1.20;;;8.90;99.90;;;;;;5065139;28;20196;-78
2022/11/24 09:05:37;;;;;;;4.03;1.33;;;8.90;99.90;;;;;;5060329;28;20623;-78
2022/11/24 09:08:02;;;;;;;5.27;1.30;;;8.90;99.90;;;;;;5055763;28;20185;-78
2022/11/24 09:10:28;;;;;;;8.73;1.43;;;9.00;99.90;;;;;;5055972;28;20176;-78
2022/11/24 09:12:54;;;;;;;10.03;1.43;;;9.00;99.90;;;;;;5055850;28;20202;-78
2022/11/24 09:15:19;;;;;;;4.73;1.47;;;9.00;99.90;;;;;;5054414;28;20182;-78
2022/11/24 09:17:45;;;;;;;6.57;1.50;;;9.00;99.90;;;;;;5055567;28;20167;-78
2022/11/24 09:20:11;;;;;;;5.73;2.07;;;9.00;99.90;;;;;;5055780;28;20663;-78
2022/11/24 09:22:38;;;;;;;9.87;2.10;;;8.90;99.90;;;;;;5055618;28;20184;-78
2022/11/24 09:25:05;;;;;;;5.20;1.57;;;9.10;99.90;;;;;;5055358;28;20241;-78
2022/11/24 09:27:31;;;;;;;4.97;1.20;;;9.10;99.90;;;;;;5055876;28;20172;-77
2022/11/24 09:29:56;;;;;;;7.90;1.73;;;9.20;99.90;;;;;;5055992;28;20198;-78
2022/11/24 09:32:22;;;;;;;8.63;1.40;;;9.20;99.90;;;;;;5055500;28;20236;-79
2022/11/24 09:34:50;;;;;;;7.00;2.00;;;9.10;99.90;;;;;;5056092;28;20171;-79
2022/11/24 09:37:16;;;;;;;7.67;1.80;;;9.10;99.90;;;;;;5055387;28;20278;-77
2022/11/24 09:39:42;;;;;;;8.90;2.10;;;9.10;99.90;;;;;;5056091;28;20306;-78
2022/11/24 09:42:34;;;;;;;7.13;2.00;;;9.10;99.90;;;;;;5055300;28;20742;-78
2022/11/24 09:45:19;;;;;;;7.43;1.43;;;9.10;99.90;;;;;;5054682;28;20180;-77
2022/11/24 09:48:02;;;;;;;9.30;2.20;;;9.20;99.90;;;;;;5055136;28;20167;-78
2022/11/24 09:50:33;;;;;;;9.93;2.07;;;9.20;99.90;;;;;;5055051;28;20167;-78
2022/11/24 09:53:04;;;;;;;10.00;2.37;;;9.30;99.90;;;;;;5053878;28;20286;-78
2022/11/24 09:55:42;;;;;;;9.87;2.07;;;9.20;99.90;;;;;;5055305;28;20183;-79
2022/11/24 09:58:31;;;;;;;10.37;2.30;;;9.20;99.90;;;;;;5055026;28;20176;-78
2022/11/24 10:00:57;;;;;;;7.90;1.40;;;9.30;99.90;;;;;;5055172;28;20607;-78
2022/11/24 10:03:29;;;;;;;17.23;2.93;;;9.30;99.90;;;;;;5055538;28;20215;-78
2022/11/24 10:05:55;;;;;;;7.80;1.80;;;9.40;99.90;;;;;;5055351;28;20577;-78
2022/11/24 10:08:35;;;;;;;5.80;1.60;;;9.40;99.90;;;;;;5054931;28;20182;-78
2022/11/24 10:11:06;;;;;;;6.20;1.60;;;9.50;99.90;;;;;;5054535;28;20629;-79
2022/11/24 10:13:45;;;;;;;9.73;2.53;;;9.60;99.90;;;;;;5055049;28;20199;-77
2022/11/24 10:16:35;;;;;;;8.33;1.57;;;9.60;99.90;;;;;;5055125;28;20582;-78
2022/11/24 10:19:20;;;;;;;6.47;2.20;;;9.70;99.90;;;;;;5055019;28;20203;-78
2022/11/24 10:22:08;;;;;;;6.27;1.67;;;9.70;99.90;;;;;;5054176;28;20172;-78
2022/11/24 10:25:05;;;;;;;9.73;1.70;;;9.70;99.90;;;;;;5054390;28;20219;-78
2022/11/24 10:27:45;;;;;;;9.43;1.97;;;9.80;99.90;;;;;;5055390;28;20645;-78
2022/11/24 10:30:18;;;;;;;8.27;1.60;;;9.90;99.90;;;;;;5054836;28;20170;-78
2022/11/24 10:32:51;;;;;;;6.80;1.70;;;10.00;99.90;;;;;;5054385;28;20741;-78
2022/11/24 10:35:39;;;;;;;7.90;1.60;;;10.00;99.90;;;;;;5054481;28;20186;-78
2022/11/24 10:38:19;;;;;;;8.70;1.67;;;10.00;99.90;;;;;;5054234;28;20180;-78
2022/11/24 10:40:51;;;;;;;8.67;1.80;;;10.10;99.90;;;;;;5054195;28;20288;-79
2022/11/24 10:43:16;;;;;;;8.03;1.80;;;10.20;99.90;;;;;;5054063;28;20233;-79
2022/11/24 10:45:42;;;;;;;7.07;1.83;;;10.20;99.90;;;;;;5054134;28;20210;-78
2022/11/24 10:48:20;;;;;;;8.20;1.80;;;10.20;99.90;;;;;;5054479;28;20191;-78
2022/11/24 10:50:46;;;;;;;6.80;1.77;;;10.20;99.90;;;;;;5053781;28;20171;-78
2022/11/24 10:53:25;;;;;;;10.97;2.60;;;10.30;99.90;;;;;;5054250;28;20258;-78
2022/11/24 10:55:54;;;;;;;8.77;1.83;;;10.20;99.90;;;;;;5054403;28;20179;-78
2022/11/24 10:58:30;;;;;;;8.17;1.63;;;10.20;99.90;;;;;;5054606;28;20176;-78
2022/11/24 11:00:59;;;;;;;10.80;2.00;;;10.30;99.90;;;;;;5054035;28;20171;-78
2022/11/24 11:03:31;;;;;;;9.80;2.07;;;10.30;99.90;;;;;;5053606;28;20222;-78
2022/11/24 11:06:10;;;;;;;11.97;1.60;;;10.30;99.90;;;;;;5054111;28;20290;-79
2022/11/24 11:08:36;;;;;;;9.80;2.53;;;10.40;99.90;;;;;;5053552;28;20230;-77
2022/11/24 11:11:26;;;;;;;10.77;2.10;;;10.40;99.90;;;;;;5053581;28;20171;-78
2022/11/24 11:13:58;;;;;;;8.63;2.00;;;10.50;99.90;;;;;;5053458;28;20229;-78
2022/11/24 11:16:49;;;;;;;10.60;1.93;;;10.40;99.90;;;;;;5053322;28;20262;-78
2022/11/24 11:19:37;;;;;;;7.67;1.77;;;10.60;99.90;;;;;;5053532;28;20178;-78
2022/11/24 11:22:13;;;;;;;9.60;2.07;;;10.60;99.90;;;;;;5053460;28;20255;-78
2022/11/24 11:24:41;;;;;;;8.40;2.00;;;10.70;99.90;;;;;;5053347;28;20218;-78
2022/11/24 11:27:25;;;;;;;7.30;2.10;;;10.60;99.90;;;;;;5054201;28;20280;-78
2022/11/24 11:29:51;;;;;;;9.20;1.60;;;10.70;99.90;;;;;;5053886;28;20171;-78
2022/11/24 11:32:26;;;;;;;9.77;2.27;;;10.70;99.90;;;;;;5053925;28;20171;-78
2022/11/24 11:34:55;;;;;;;9.37;1.93;;;10.80;99.90;;;;;;5053774;28;20168;-78
2022/11/24 11:37:31;;;;;;;10.43;2.53;;;10.80;99.90;;;;;;5053391;28;20635;-78
2022/11/24 11:39:57;;;;;;;8.87;2.40;;;10.80;99.90;;;;;;5054269;28;20163;-78
2022/11/24 11:42:38;;;;;;;11.13;2.83;;;10.80;99.90;;;;;;5053132;28;20250;-78
2022/11/24 11:45:16;;;;;;;9.93;2.17;;;10.80;99.90;;;;;;5053385;28;20175;-78
2022/11/24 11:47:51;;;;;;;12.87;2.00;;;10.90;99.90;;;;;;5053470;28;20171;-78
2022/11/24 11:50:24;;;;;;;9.10;2.80;;;11.00;99.90;;;;;;5052929;28;20641;-78
2022/11/24 11:53:18;;;;;;;12.10;2.30;;;11.00;99.90;;;;;;5053022;28;20198;-78
2022/11/24 11:56:16;;;;;;;7.73;2.13;;;11.10;99.90;;;;;;5054098;28;20175;-78
2022/11/24 11:59:06;;;;;;;9.73;2.00;;;11.00;99.90;;;;;;5040773;28;20270;-79
2022/11/24 12:01:59;;;;;;;12.10;2.10;;;11.00;99.90;;;;;;5055963;28;20163;-78
2022/11/24 12:04:51;;;;;;;11.57;2.23;;;11.10;99.90;;;;;;5054006;28;20200;-79
2022/11/24 12:07:27;;;;;;;16.33;3.27;;;11.10;99.90;;;;;;5054321;28;20195;-79
2022/11/24 12:10:08;;;;;;;10.37;2.73;;;11.10;99.90;;;;;;5054101;28;20171;-79
2022/11/24 12:12:59;;;;;;;11.13;2.47;;;11.20;99.90;;;;;;5054465;28;20385;-79
2022/11/24 12:15:33;;;;;;;10.83;3.20;;;11.20;99.90;;;;;;5062352;28;20209;-78
2022/11/24 12:18:05;;;;;;;14.07;2.40;;;11.30;99.90;;;;;;5064963;28;20246;-78
2022/11/24 12:21:09;;;;;;;8.40;1.97;;;11.40;99.90;;;;;;5063753;28;20171;-77
2022/11/24 12:23:34;;;;;;;10.67;2.27;;;11.40;99.90;;;;;;5090683;22;20222;-76
2022/11/24 12:26:23;;;;;;;17.10;2.87;;;11.40;99.90;;;;;;5094900;28;20628;-77
2022/11/24 12:29:26;;;;;;;14.00;3.13;;;11.40;99.90;;;;;;5095795;28;20532;-78
2022/11/24 12:31:56;;;;;;;10.53;2.30;;;11.50;99.90;;;;;;5094906;28;20166;-77
2022/11/24 12:34:36;;;;;;;17.30;2.33;;;11.50;99.90;;;;;;5094792;28;20198;-77
2022/11/24 12:37:17;;;;;;;9.77;1.93;;;11.50;99.90;;;;;;5077914;28;20162;-77
2022/11/24 12:40:00;;;;;;;14.23;2.60;;;11.50;99.90;;;;;;5078136;28;20570;-77
2022/11/24 12:43:02;;;;;;;9.27;2.00;;;11.50;99.90;;;;;;5077948;28;20173;-77
2022/11/24 12:45:41;;;;;;;13.07;2.43;;;11.50;99.90;;;;;;5054938;28;20634;-77
2022/11/24 12:48:16;;;;;;;10.07;2.00;;;11.60;99.90;;;;;;5077854;28;20225;-77
2022/11/24 12:50:44;;;;;;;11.83;4.60;;;11.60;99.90;;;;;;5077646;28;20518;-77
2022/11/24 12:53:23;;;;;;;10.40;2.03;;;11.60;99.90;;;;;;5077617;28;20201;-77
2022/11/24 12:55:49;;;;;;;8.40;2.07;;;11.60;99.90;;;;;;5077823;28;20159;-77
2022/11/24 12:58:49;;;;;;;9.90;2.13;;;11.50;99.90;;;;;;5077717;28;20216;-77
2022/11/24 13:01:32;;;;;;;12.80;1.73;;;11.50;99.90;;;;;;5077905;28;20220;-77